Nissho Maru No7 — JH3472 — position and weather

sailwx.info

Track history (hours):
 
Tides and Currents Weather Stations Pressure Air Temp Water Temp Dewpoint Dewpoint Depression Visibility Wind Speed Wind Dir Waves Ship Positions

Nissho Maru No7

Last reported at 2015-Jul-27 05:13 UTC. Time now 2015-Jul-31 03:03 UTC.
Position N 37°31' E 141°10'.

Length 73 m; draft 4.8 m.

MMSI: 431200355.

Date/timePositionNaut miles runAvg speedWind from/ knotsBaromVisibWave heightAir tempDewpointWater temp
2015-Jul-27 05:13N 37°31' E 141°10'5411.7
2015-Jul-27 00:33N 36°37' E 141°00'1111.3
2015-Jul-26 23:33N 36°26' E 140°59'1111.6
2015-Jul-26 22:33N 36°14' E 140°59'1211.6
2015-Jul-26 21:33N 36°02' E 140°58'1111.3
2015-Jul-26 20:32N 35°51' E 140°57'1111.3
2015-Jul-26 19:33N 35°40' E 140°53'1111.5
2015-Jul-26 18:33N 35°32' E 140°44'1211.5
2015-Jul-26 17:33N 35°22' E 140°36'1511.7
2015-Jul-26 16:14N 35°10' E 140°25'811.3
2015-Jul-26 15:32N 35°04' E 140°18'1111.1
2015-Jul-26 14:33N 34°59' E 140°07'1211.5
2015-Jul-26 13:32N 34°52' E 139°55'1111.6
2015-Jul-26 12:33N 34°51' E 139°41'236 9.8
2015-Jul-25 12:28N 34°03' E 135°00'1010.7
2015-Jul-25 11:33N 34°13' E 134°59'1010.4
2015-Jul-25 10:33N 34°23' E 135°02'1110.9
2015-Jul-25 09:33N 34°29' E 135°12'1110.7
2015-Jul-25 08:33N 34°36' E 135°22'4 3.6
2015-Jul-25 07:30N 34°35' E 135°27'0 0.0
2015-Jul-25 06:30N 34°35' E 135°27'0 0.0
2015-Jul-25 05:30N 34°35' E 135°27'0 0.0
2015-Jul-25 03:15N 34°35' E 135°27'0 0.0
2015-Jul-25 02:27N 34°35' E 135°27'0 0.0
2015-Jul-25 01:21N 34°35' E 135°27'0 0.0
2015-Jul-25 00:33N 34°35' E 135°27'0 0.0
2015-Jul-24 23:33N 34°35' E 135°27'0 0.0
2015-Jul-24 22:27N 34°35' E 135°27'1 0.8
2015-Jul-24 21:31N 34°35' E 135°27'0 0.0
2015-Jul-24 19:30N 34°35' E 135°27'0 0.0
2015-Jul-24 17:18N 34°35' E 135°27'0 0.0
2015-Jul-24 16:12N 34°35' E 135°27'0 0.1
2015-Jul-24 15:30N 34°35' E 135°27'0 0.0
2015-Jul-24 14:06N 34°35' E 135°27'0 0.0
2015-Jul-24 13:30N 34°35' E 135°27'0 0.0
2015-Jul-24 12:14N 34°35' E 135°27'3 3.8
2015-Jul-24 11:33N 34°36' E 135°24'1111.5
2015-Jul-24 10:33N 34°35' E 135°10'1312.2
2015-Jul-24 09:30N 34°37' E 134°55'8 1.9
2015-Jul-24 05:16N 34°41' E 134°47'912.4
2015-Jul-24 04:33N 34°37' E 134°56'1010.0
2015-Jul-24 03:33N 34°31' E 135°05'1512.0
2015-Jul-24 02:20N 34°16' E 135°03'4 4.8
2015-Jul-24 01:33N 34°15' E 135°07'0 0.0
2015-Jul-24 00:31N 34°15' E 135°07'0 0.0
2015-Jul-23 23:31N 34°15' E 135°07'0 0.0
2015-Jul-23 22:28N 34°15' E 135°07'0 0.0
2015-Jul-23 21:31N 34°15' E 135°07'0 0.0
2015-Jul-23 20:31N 34°15' E 135°07'0 0.0
2015-Jul-23 19:28N 34°15' E 135°07'0 0.0
2015-Jul-23 18:28N 34°15' E 135°07'0 0.0
2015-Jul-23 17:28N 34°15' E 135°07'0 0.0
2015-Jul-23 16:28N 34°15' E 135°07'0 0.0
2015-Jul-23 15:28N 34°15' E 135°07'0 0.0
2015-Jul-23 14:28N 34°15' E 135°07'0 0.0
2015-Jul-23 13:28N 34°15' E 135°07'0 0.0
2015-Jul-23 12:28N 34°15' E 135°07'0 0.0
2015-Jul-23 11:28N 34°15' E 135°07'0 0.0
2015-Jul-23 10:28N 34°15' E 135°07'0 0.0
2015-Jul-23 09:28N 34°15' E 135°07'0 0.0
2015-Jul-23 08:28N 34°15' E 135°07'0 0.0
2015-Jul-23 07:28N 34°15' E 135°07'0 0.0
2015-Jul-23 06:28N 34°15' E 135°07'2 1.9
2015-Jul-23 05:34N 34°15' E 135°05'0 0.4
2015-Jul-23 04:32N 34°15' E 135°05'0 0.0
2015-Jul-23 03:32N 34°15' E 135°05'0 0.0
2015-Jul-23 02:32N 34°15' E 135°05'0 0.0
2015-Jul-23 01:32N 34°15' E 135°05'0 0.0
2015-Jul-23 00:32N 34°15' E 135°05'0 0.0
2015-Jul-22 23:32N 34°15' E 135°05'0 0.0
2015-Jul-22 22:32N 34°15' E 135°05'0 0.0
2015-Jul-22 21:32N 34°15' E 135°05'0 0.0
2015-Jul-22 20:32N 34°15' E 135°05'0 0.0
2015-Jul-22 19:32N 34°15' E 135°05'0 0.0
2015-Jul-22 18:32N 34°15' E 135°05'0 0.0
2015-Jul-22 17:32N 34°15' E 135°05'0 0.0
2015-Jul-22 16:32N 34°15' E 135°05'0 0.0
2015-Jul-22 15:32N 34°15' E 135°05'0 0.0
2015-Jul-22 14:32N 34°15' E 135°05'0 0.0
2015-Jul-22 13:29N 34°15' E 135°05'0 0.0
2015-Jul-22 12:32N 34°15' E 135°05'0 0.0
2015-Jul-22 11:29N 34°15' E 135°05'0 0.0
2015-Jul-22 10:17N 34°15' E 135°05'0 0.0
2015-Jul-22 09:32N 34°15' E 135°05'0 0.0
2015-Jul-22 08:29N 34°15' E 135°05'0 0.0
2015-Jul-22 07:29N 34°15' E 135°05'0 0.0
2015-Jul-22 06:32N 34°15' E 135°05'0 0.0
2015-Jul-22 05:32N 34°15' E 135°05'0 0.0
2015-Jul-22 04:29N 34°15' E 135°05'0 0.0
2015-Jul-22 03:32N 34°15' E 135°05'0 0.0
2015-Jul-22 02:29N 34°15' E 135°05'0 0.0
2015-Jul-22 01:29N 34°15' E 135°05'0 0.0
2015-Jul-22 00:32N 34°15' E 135°05'0 0.0
2015-Jul-21 23:26N 34°15' E 135°05'0 0.0
2015-Jul-21 22:29N 34°15' E 135°05'0 0.0
2015-Jul-21 21:32N 34°15' E 135°05'0 0.0
2015-Jul-21 20:29N 34°15' E 135°05'0 0.0
2015-Jul-21 19:32N 34°15' E 135°05'0 0.0
2015-Jul-21 18:32N 34°15' E 135°05'0 0.0
2015-Jul-21 17:29N 34°15' E 135°05'0 0.0
2015-Jul-21 16:32N 34°15' E 135°05'0 0.0
2015-Jul-21 15:26N 34°15' E 135°05'8 8.6
2015-Jul-21 14:33N 34°08' E 135°03'220 8.4
2015-Jul-20 12:13N 34°51' E 139°25'710.7
2015-Jul-20 11:33N 34°51' E 139°34'20 8.9
2015-Jul-20 09:20N 34°53' E 139°57'911.1
2015-Jul-20 08:31N 34°58' E 140°07'2711.5
2015-Jul-20 06:11N 35°16' E 140°31'1011.2
2015-Jul-20 05:17N 35°24' E 140°38'34 8.9
2015-Jul-20 01:29N 35°58' E 140°43'3 0.2
2015-Jul-19 10:10N 35°56' E 140°40'29 7.8
2015-Jul-19 06:25N 35°26' E 140°42'1412.1
2015-Jul-19 05:17N 35°16' E 140°32'40 8.6
2015-Jul-19 00:33N 35°03' E 139°45'1111.3
2015-Jul-18 23:33N 35°14' E 139°46'1111.0
2015-Jul-18 22:33N 35°25' E 139°44'5 4.9
2015-Jul-18 21:33N 35°22' E 139°49'0 0.0
2015-Jul-18 20:34N 35°22' E 139°49'0 0.0
2015-Jul-18 19:33N 35°22' E 139°49'0 0.0
2015-Jul-18 18:33N 35°22' E 139°49'0 0.0
2015-Jul-18 17:33N 35°22' E 139°49'0 0.0
2015-Jul-18 16:33N 35°22' E 139°49'0 0.0
2015-Jul-18 15:33N 35°22' E 139°49'0 0.0
2015-Jul-18 14:32N 35°22' E 139°49'0 0.0
2015-Jul-18 13:33N 35°22' E 139°49'0 0.0
2015-Jul-18 12:34N 35°22' E 139°49'0 0.0
2015-Jul-18 11:33N 35°22' E 139°49'0 0.0
2015-Jul-18 10:33N 35°22' E 139°49'0 0.0
2015-Jul-18 09:33N 35°22' E 139°49'0 0.0
2015-Jul-18 08:32N 35°22' E 139°49'0 0.0
2015-Jul-18 07:33N 35°22' E 139°49'0 0.0
2015-Jul-18 06:33N 35°22' E 139°49'0 0.0
2015-Jul-18 05:33N 35°22' E 139°49'0 0.0
2015-Jul-18 04:33N 35°22' E 139°49'0 0.0
2015-Jul-18 03:33N 35°22' E 139°49'0 0.0
2015-Jul-18 02:33N 35°22' E 139°49'0 0.0
2015-Jul-18 01:33N 35°22' E 139°49'0 0.0
2015-Jul-18 00:31N 35°22' E 139°49'0 0.0
2015-Jul-17 23:33N 35°22' E 139°49'0 0.0
2015-Jul-17 22:33N 35°22' E 139°49'0 0.0
2015-Jul-17 21:33N 35°22' E 139°49'0 0.0
2015-Jul-17 20:33N 35°22' E 139°49'0 0.0
2015-Jul-17 19:34N 35°22' E 139°49'0 0.0
2015-Jul-17 18:31N 35°22' E 139°49'0 0.0
2015-Jul-17 17:32N 35°22' E 139°49'0 0.0
2015-Jul-17 16:33N 35°22' E 139°49'0 0.0
2015-Jul-17 15:32N 35°22' E 139°49'0 0.0
2015-Jul-17 14:33N 35°22' E 139°49'0 0.0
2015-Jul-17 13:33N 35°22' E 139°49'0 0.0
2015-Jul-17 12:33N 35°22' E 139°49'0 0.0
2015-Jul-17 11:33N 35°22' E 139°49'0 0.0
2015-Jul-17 10:33N 35°22' E 139°49'0 0.0
2015-Jul-17 09:32N 35°22' E 139°49'0 0.0
2015-Jul-17 08:33N 35°22' E 139°49'0 0.0
2015-Jul-17 07:31N 35°22' E 139°49'0 0.0
2015-Jul-17 06:33N 35°22' E 139°49'0 0.0
2015-Jul-17 05:32N 35°22' E 139°49'  
Track history (hours):
 
Tides and Currents Weather Stations Pressure Air Temp Water Temp Dewpoint Dewpoint Depression Visibility Wind Speed Wind Dir Waves Ship Positions

Nissho Maru No7

Last reported at 2015-Jul-27 05:13 UTC. Time now 2015-Jul-31 03:03 UTC.
Position N 37°31' E 141°10'.

Length 73 m; draft 4.8 m.

MMSI: 431200355.

Date/timePositionNaut miles runAvg speedWind from/ knotsBaromVisibWave heightAir tempDewpointWater temp
2015-Jul-27 05:13N 37°31' E 141°10'5411.7
2015-Jul-27 00:33N 36°37' E 141°00'1111.3
2015-Jul-26 23:33N 36°26' E 140°59'1111.6
2015-Jul-26 22:33N 36°14' E 140°59'1211.6
2015-Jul-26 21:33N 36°02' E 140°58'1111.3
2015-Jul-26 20:32N 35°51' E 140°57'1111.3
2015-Jul-26 19:33N 35°40' E 140°53'1111.5
2015-Jul-26 18:33N 35°32' E 140°44'1211.5
2015-Jul-26 17:33N 35°22' E 140°36'1511.7
2015-Jul-26 16:14N 35°10' E 140°25'811.3
2015-Jul-26 15:32N 35°04' E 140°18'1111.1
2015-Jul-26 14:33N 34°59' E 140°07'1211.5
2015-Jul-26 13:32N 34°52' E 139°55'1111.6
2015-Jul-26 12:33N 34°51' E 139°41'236 9.8
2015-Jul-25 12:28N 34°03' E 135°00'1010.7
2015-Jul-25 11:33N 34°13' E 134°59'1010.4
2015-Jul-25 10:33N 34°23' E 135°02'1110.9
2015-Jul-25 09:33N 34°29' E 135°12'1110.7
2015-Jul-25 08:33N 34°36' E 135°22'4 3.6
2015-Jul-25 07:30N 34°35' E 135°27'0 0.0
2015-Jul-25 06:30N 34°35' E 135°27'0 0.0
2015-Jul-25 05:30N 34°35' E 135°27'0 0.0
2015-Jul-25 03:15N 34°35' E 135°27'0 0.0
2015-Jul-25 02:27N 34°35' E 135°27'0 0.0
2015-Jul-25 01:21N 34°35' E 135°27'0 0.0
2015-Jul-25 00:33N 34°35' E 135°27'0 0.0
2015-Jul-24 23:33N 34°35' E 135°27'0 0.0
2015-Jul-24 22:27N 34°35' E 135°27'1 0.8
2015-Jul-24 21:31N 34°35' E 135°27'0 0.0
2015-Jul-24 19:30N 34°35' E 135°27'0 0.0
2015-Jul-24 17:18N 34°35' E 135°27'0 0.0
2015-Jul-24 16:12N 34°35' E 135°27'0 0.1
2015-Jul-24 15:30N 34°35' E 135°27'0 0.0
2015-Jul-24 14:06N 34°35' E 135°27'0 0.0
2015-Jul-24 13:30N 34°35' E 135°27'0 0.0
2015-Jul-24 12:14N 34°35' E 135°27'3 3.8
2015-Jul-24 11:33N 34°36' E 135°24'1111.5
2015-Jul-24 10:33N 34°35' E 135°10'1312.2
2015-Jul-24 09:30N 34°37' E 134°55'8 1.9
2015-Jul-24 05:16N 34°41' E 134°47'912.4
2015-Jul-24 04:33N 34°37' E 134°56'1010.0
2015-Jul-24 03:33N 34°31' E 135°05'1512.0
2015-Jul-24 02:20N 34°16' E 135°03'4 4.8
2015-Jul-24 01:33N 34°15' E 135°07'0 0.0
2015-Jul-24 00:31N 34°15' E 135°07'0 0.0
2015-Jul-23 23:31N 34°15' E 135°07'0 0.0
2015-Jul-23 22:28N 34°15' E 135°07'0 0.0
2015-Jul-23 21:31N 34°15' E 135°07'0 0.0
2015-Jul-23 20:31N 34°15' E 135°07'0 0.0
2015-Jul-23 19:28N 34°15' E 135°07'0 0.0
2015-Jul-23 18:28N 34°15' E 135°07'0 0.0
2015-Jul-23 17:28N 34°15' E 135°07'0 0.0
2015-Jul-23 16:28N 34°15' E 135°07'0 0.0
2015-Jul-23 15:28N 34°15' E 135°07'0 0.0
2015-Jul-23 14:28N 34°15' E 135°07'0 0.0
2015-Jul-23 13:28N 34°15' E 135°07'0 0.0
2015-Jul-23 12:28N 34°15' E 135°07'0 0.0
2015-Jul-23 11:28N 34°15' E 135°07'0 0.0
2015-Jul-23 10:28N 34°15' E 135°07'0 0.0
2015-Jul-23 09:28N 34°15' E 135°07'0 0.0
2015-Jul-23 08:28N 34°15' E 135°07'0 0.0
2015-Jul-23 07:28N 34°15' E 135°07'0 0.0
2015-Jul-23 06:28N 34°15' E 135°07'2 1.9
2015-Jul-23 05:34N 34°15' E 135°05'0 0.4
2015-Jul-23 04:32N 34°15' E 135°05'0 0.0
2015-Jul-23 03:32N 34°15' E 135°05'0 0.0
2015-Jul-23 02:32N 34°15' E 135°05'0 0.0
2015-Jul-23 01:32N 34°15' E 135°05'0 0.0
2015-Jul-23 00:32N 34°15' E 135°05'0 0.0
2015-Jul-22 23:32N 34°15' E 135°05'0 0.0
2015-Jul-22 22:32N 34°15' E 135°05'0 0.0
2015-Jul-22 21:32N 34°15' E 135°05'0 0.0
2015-Jul-22 20:32N 34°15' E 135°05'0 0.0
2015-Jul-22 19:32N 34°15' E 135°05'0 0.0
2015-Jul-22 18:32N 34°15' E 135°05'0 0.0
2015-Jul-22 17:32N 34°15' E 135°05'0 0.0
2015-Jul-22 16:32N 34°15' E 135°05'0 0.0
2015-Jul-22 15:32N 34°15' E 135°05'0 0.0
2015-Jul-22 14:32N 34°15' E 135°05'0 0.0
2015-Jul-22 13:29N 34°15' E 135°05'0 0.0
2015-Jul-22 12:32N 34°15' E 135°05'0 0.0
2015-Jul-22 11:29N 34°15' E 135°05'0 0.0
2015-Jul-22 10:17N 34°15' E 135°05'0 0.0
2015-Jul-22 09:32N 34°15' E 135°05'0 0.0
2015-Jul-22 08:29N 34°15' E 135°05'0 0.0
2015-Jul-22 07:29N 34°15' E 135°05'0 0.0
2015-Jul-22 06:32N 34°15' E 135°05'0 0.0
2015-Jul-22 05:32N 34°15' E 135°05'0 0.0
2015-Jul-22 04:29N 34°15' E 135°05'0 0.0
2015-Jul-22 03:32N 34°15' E 135°05'0 0.0
2015-Jul-22 02:29N 34°15' E 135°05'0 0.0
2015-Jul-22 01:29N 34°15' E 135°05'0 0.0
2015-Jul-22 00:32N 34°15' E 135°05'0 0.0
2015-Jul-21 23:26N 34°15' E 135°05'0 0.0
2015-Jul-21 22:29N 34°15' E 135°05'0 0.0
2015-Jul-21 21:32N 34°15' E 135°05'0 0.0
2015-Jul-21 20:29N 34°15' E 135°05'0 0.0
2015-Jul-21 19:32N 34°15' E 135°05'0 0.0
2015-Jul-21 18:32N 34°15' E 135°05'0 0.0
2015-Jul-21 17:29N 34°15' E 135°05'0 0.0
2015-Jul-21 16:32N 34°15' E 135°05'0 0.0
2015-Jul-21 15:26N 34°15' E 135°05'8 8.6
2015-Jul-21 14:33N 34°08' E 135°03'220 8.4
2015-Jul-20 12:13N 34°51' E 139°25'710.7
2015-Jul-20 11:33N 34°51' E 139°34'20 8.9
2015-Jul-20 09:20N 34°53' E 139°57'911.1
2015-Jul-20 08:31N 34°58' E 140°07'2711.5
2015-Jul-20 06:11N 35°16' E 140°31'1011.2
2015-Jul-20 05:17N 35°24' E 140°38'34 8.9
2015-Jul-20 01:29N 35°58' E 140°43'3 0.2
2015-Jul-19 10:10N 35°56' E 140°40'29 7.8
2015-Jul-19 06:25N 35°26' E 140°42'1412.1
2015-Jul-19 05:17N 35°16' E 140°32'40 8.6
2015-Jul-19 00:33N 35°03' E 139°45'1111.3
2015-Jul-18 23:33N 35°14' E 139°46'1111.0
2015-Jul-18 22:33N 35°25' E 139°44'5 4.9
2015-Jul-18 21:33N 35°22' E 139°49'0 0.0
2015-Jul-18 20:34N 35°22' E 139°49'0 0.0
2015-Jul-18 19:33N 35°22' E 139°49'0 0.0
2015-Jul-18 18:33N 35°22' E 139°49'0 0.0
2015-Jul-18 17:33N 35°22' E 139°49'0 0.0
2015-Jul-18 16:33N 35°22' E 139°49'0 0.0
2015-Jul-18 15:33N 35°22' E 139°49'0 0.0
2015-Jul-18 14:32N 35°22' E 139°49'0 0.0
2015-Jul-18 13:33N 35°22' E 139°49'0 0.0
2015-Jul-18 12:34N 35°22' E 139°49'0 0.0
2015-Jul-18 11:33N 35°22' E 139°49'0 0.0
2015-Jul-18 10:33N 35°22' E 139°49'0 0.0
2015-Jul-18 09:33N 35°22' E 139°49'0 0.0
2015-Jul-18 08:32N 35°22' E 139°49'0 0.0
2015-Jul-18 07:33N 35°22' E 139°49'0 0.0
2015-Jul-18 06:33N 35°22' E 139°49'0 0.0
2015-Jul-18 05:33N 35°22' E 139°49'0 0.0
2015-Jul-18 04:33N 35°22' E 139°49'0 0.0
2015-Jul-18 03:33N 35°22' E 139°49'0 0.0
2015-Jul-18 02:33N 35°22' E 139°49'0 0.0
2015-Jul-18 01:33N 35°22' E 139°49'0 0.0
2015-Jul-18 00:31N 35°22' E 139°49'0 0.0
2015-Jul-17 23:33N 35°22' E 139°49'0 0.0
2015-Jul-17 22:33N 35°22' E 139°49'0 0.0
2015-Jul-17 21:33N 35°22' E 139°49'0 0.0
2015-Jul-17 20:33N 35°22' E 139°49'0 0.0
2015-Jul-17 19:34N 35°22' E 139°49'0 0.0
2015-Jul-17 18:31N 35°22' E 139°49'0 0.0
2015-Jul-17 17:32N 35°22' E 139°49'0 0.0
2015-Jul-17 16:33N 35°22' E 139°49'0 0.0
2015-Jul-17 15:32N 35°22' E 139°49'0 0.0
2015-Jul-17 14:33N 35°22' E 139°49'0 0.0
2015-Jul-17 13:33N 35°22' E 139°49'0 0.0
2015-Jul-17 12:33N 35°22' E 139°49'0 0.0
2015-Jul-17 11:33N 35°22' E 139°49'0 0.0
2015-Jul-17 10:33N 35°22' E 139°49'0 0.0
2015-Jul-17 09:32N 35°22' E 139°49'0 0.0
2015-Jul-17 08:33N 35°22' E 139°49'0 0.0
2015-Jul-17 07:31N 35°22' E 139°49'0 0.0
2015-Jul-17 06:33N 35°22' E 139°49'0 0.0
2015-Jul-17 05:32N 35°22' E 139°49'  

Dump ship's entire track history